sensor_id;sensor_type;location;lat;lon;timestamp;temperature;humidity
6377;DHT22;3221;48.858;10.128;2023-07-08T00:01:15;21.10;58.10
6377;DHT22;3221;48.858;10.128;2023-07-08T00:03:42;21.10;58.10
6377;DHT22;3221;48.858;10.128;2023-07-08T00:06:21;21.10;58.30
6377;DHT22;3221;48.858;10.128;2023-07-08T00:08:49;21.10;58.50
6377;DHT22;3221;48.858;10.128;2023-07-08T00:11:18;21.10;58.80
6377;DHT22;3221;48.858;10.128;2023-07-08T00:13:45;21.10;59.00
6377;DHT22;3221;48.858;10.128;2023-07-08T00:16:17;21.10;59.10
6377;DHT22;3221;48.858;10.128;2023-07-08T00:18:46;21.00;59.10
6377;DHT22;3221;48.858;10.128;2023-07-08T00:21:15;21.00;59.60
6377;DHT22;3221;48.858;10.128;2023-07-08T00:23:47;21.00;59.90
6377;DHT22;3221;48.858;10.128;2023-07-08T00:26:30;21.00;60.20
6377;DHT22;3221;48.858;10.128;2023-07-08T00:28:59;21.00;60.50
6377;DHT22;3221;48.858;10.128;2023-07-08T00:31:26;21.00;60.70
6377;DHT22;3221;48.858;10.128;2023-07-08T00:33:54;21.00;61.00
6377;DHT22;3221;48.858;10.128;2023-07-08T00:36:25;21.00;61.10
6377;DHT22;3221;48.858;10.128;2023-07-08T00:38:52;21.00;61.60
6377;DHT22;3221;48.858;10.128;2023-07-08T00:41:38;21.00;61.80
6377;DHT22;3221;48.858;10.128;2023-07-08T00:44:11;21.00;62.10
6377;DHT22;3221;48.858;10.128;2023-07-08T00:46:58;21.00;62.00
6377;DHT22;3221;48.858;10.128;2023-07-08T00:54:48;21.00;63.00
6377;DHT22;3221;48.858;10.128;2023-07-08T00:57:15;20.90;62.90
6377;DHT22;3221;48.858;10.128;2023-07-08T00:59:47;20.90;63.10
6377;DHT22;3221;48.858;10.128;2023-07-08T01:02:17;20.90;63.30
6377;DHT22;3221;48.858;10.128;2023-07-08T01:04:50;20.90;63.40
6377;DHT22;3221;48.858;10.128;2023-07-08T01:07:19;20.80;63.40
6377;DHT22;3221;48.858;10.128;2023-07-08T01:09:53;20.80;63.40
6377;DHT22;3221;48.858;10.128;2023-07-08T01:12:26;20.80;63.80
6377;DHT22;3221;48.858;10.128;2023-07-08T01:14:54;20.80;63.70
6377;DHT22;3221;48.858;10.128;2023-07-08T01:17:23;20.80;63.90
6377;DHT22;3221;48.858;10.128;2023-07-08T01:19:50;20.80;64.20
6377;DHT22;3221;48.858;10.128;2023-07-08T01:22:17;20.80;64.10
6377;DHT22;3221;48.858;10.128;2023-07-08T01:24:45;20.80;64.00
6377;DHT22;3221;48.858;10.128;2023-07-08T01:27:15;20.80;64.10
6377;DHT22;3221;48.858;10.128;2023-07-08T01:29:43;20.70;63.90
6377;DHT22;3221;48.858;10.128;2023-07-08T01:32:13;20.70;64.30
6377;DHT22;3221;48.858;10.128;2023-07-08T01:34:46;20.70;64.20
6377;DHT22;3221;48.858;10.128;2023-07-08T01:37:37;20.70;64.10
6377;DHT22;3221;48.858;10.128;2023-07-08T01:40:37;20.70;64.20
6377;DHT22;3221;48.858;10.128;2023-07-08T01:43:05;20.60;64.50
6377;DHT22;3221;48.858;10.128;2023-07-08T01:45:38;20.70;64.60
6377;DHT22;3221;48.858;10.128;2023-07-08T01:48:19;20.70;64.60
6377;DHT22;3221;48.858;10.128;2023-07-08T01:50:54;20.60;64.60
6377;DHT22;3221;48.858;10.128;2023-07-08T01:53:32;20.60;64.60
6377;DHT22;3221;48.858;10.128;2023-07-08T01:56:00;20.60;64.80
6377;DHT22;3221;48.858;10.128;2023-07-08T01:58:27;20.60;65.00
6377;DHT22;3221;48.858;10.128;2023-07-08T02:00:54;20.60;65.10
6377;DHT22;3221;48.858;10.128;2023-07-08T02:03:23;20.60;65.20
6377;DHT22;3221;48.858;10.128;2023-07-08T02:05:49;20.60;65.10
6377;DHT22;3221;48.858;10.128;2023-07-08T02:08:16;20.60;65.30
6377;DHT22;3221;48.858;10.128;2023-07-08T02:10:46;20.50;65.10
6377;DHT22;3221;48.858;10.128;2023-07-08T02:13:12;20.50;65.40
6377;DHT22;3221;48.858;10.128;2023-07-08T02:15:39;20.50;65.50
6377;DHT22;3221;48.858;10.128;2023-07-08T02:18:06;20.50;66.30
6377;DHT22;3221;48.858;10.128;2023-07-08T02:20:33;20.40;65.50
6377;DHT22;3221;48.858;10.128;2023-07-08T02:23:00;20.40;65.50
6377;DHT22;3221;48.858;10.128;2023-07-08T02:25:27;20.40;65.50
6377;DHT22;3221;48.858;10.128;2023-07-08T02:27:55;20.40;66.60
6377;DHT22;3221;48.858;10.128;2023-07-08T02:30:24;20.40;66.10
6377;DHT22;3221;48.858;10.128;2023-07-08T02:32:51;20.30;66.00
6377;DHT22;3221;48.858;10.128;2023-07-08T02:35:29;20.30;66.10
6377;DHT22;3221;48.858;10.128;2023-07-08T02:37:57;20.30;66.30
6377;DHT22;3221;48.858;10.128;2023-07-08T02:40:25;20.30;66.40
6377;DHT22;3221;48.858;10.128;2023-07-08T02:42:53;20.20;66.30
6377;DHT22;3221;48.858;10.128;2023-07-08T02:45:20;20.20;66.40
6377;DHT22;3221;48.858;10.128;2023-07-08T02:47:47;20.20;66.60
6377;DHT22;3221;48.858;10.128;2023-07-08T02:50:14;20.20;66.50
6377;DHT22;3221;48.858;10.128;2023-07-08T02:52:41;20.20;67.10
6377;DHT22;3221;48.858;10.128;2023-07-08T02:55:08;20.20;66.90
6377;DHT22;3221;48.858;10.128;2023-07-08T02:57:35;20.20;67.00
6377;DHT22;3221;48.858;10.128;2023-07-08T03:00:02;20.10;66.90
6377;DHT22;3221;48.858;10.128;2023-07-08T03:02:31;20.20;67.10
6377;DHT22;3221;48.858;10.128;2023-07-08T03:04:58;20.10;67.20
6377;DHT22;3221;48.858;10.128;2023-07-08T03:07:25;20.10;67.30
6377;DHT22;3221;48.858;10.128;2023-07-08T03:09:52;20.10;67.40
6377;DHT22;3221;48.858;10.128;2023-07-08T03:12:19;20.10;67.50
6377;DHT22;3221;48.858;10.128;2023-07-08T03:14:46;20.00;67.50
6377;DHT22;3221;48.858;10.128;2023-07-08T03:17:15;20.10;67.80
6377;DHT22;3221;48.858;10.128;2023-07-08T03:19:43;20.10;67.40
6377;DHT22;3221;48.858;10.128;2023-07-08T03:22:10;20.10;67.20
6377;DHT22;3221;48.858;10.128;2023-07-08T03:24:37;20.10;67.20
6377;DHT22;3221;48.858;10.128;2023-07-08T03:27:15;20.00;66.70
6377;DHT22;3221;48.858;10.128;2023-07-08T03:29:43;20.10;66.20
6377;DHT22;3221;48.858;10.128;2023-07-08T03:32:11;20.10;65.40
6377;DHT22;3221;48.858;10.128;2023-07-08T03:34:40;20.10;65.30
6377;DHT22;3221;48.858;10.128;2023-07-08T03:37:08;20.10;65.50
6377;DHT22;3221;48.858;10.128;2023-07-08T03:39:35;20.10;65.80
6377;DHT22;3221;48.858;10.128;2023-07-08T03:42:02;20.10;66.10
6377;DHT22;3221;48.858;10.128;2023-07-08T03:44:30;20.10;66.00
6377;DHT22;3221;48.858;10.128;2023-07-08T03:46:58;20.20;66.40
6377;DHT22;3221;48.858;10.128;2023-07-08T03:49:25;20.10;66.50
6377;DHT22;3221;48.858;10.128;2023-07-08T03:51:54;20.20;66.60
6377;DHT22;3221;48.858;10.128;2023-07-08T03:54:23;20.10;66.80
6377;DHT22;3221;48.858;10.128;2023-07-08T03:56:52;20.10;66.60
6377;DHT22;3221;48.858;10.128;2023-07-08T03:59:22;20.20;66.10
6377;DHT22;3221;48.858;10.128;2023-07-08T04:01:49;20.20;66.20
6377;DHT22;3221;48.858;10.128;2023-07-08T04:04:16;20.20;66.50
6377;DHT22;3221;48.858;10.128;2023-07-08T04:06:44;20.20;66.30
6377;DHT22;3221;48.858;10.128;2023-07-08T04:09:12;20.20;66.20
6377;DHT22;3221;48.858;10.128;2023-07-08T04:11:39;20.20;66.60
6377;DHT22;3221;48.858;10.128;2023-07-08T04:14:08;20.20;66.80
6377;DHT22;3221;48.858;10.128;2023-07-08T04:16:54;20.20;66.50
6377;DHT22;3221;48.858;10.128;2023-07-08T04:19:24;20.20;66.30
6377;DHT22;3221;48.858;10.128;2023-07-08T04:21:51;20.20;66.20
6377;DHT22;3221;48.858;10.128;2023-07-08T04:24:18;20.20;66.80
6377;DHT22;3221;48.858;10.128;2023-07-08T04:26:47;20.20;66.60
6377;DHT22;3221;48.858;10.128;2023-07-08T04:29:19;20.20;66.70
6377;DHT22;3221;48.858;10.128;2023-07-08T04:31:47;20.20;66.80
6377;DHT22;3221;48.858;10.128;2023-07-08T04:34:15;20.20;66.80
6377;DHT22;3221;48.858;10.128;2023-07-08T04:36:43;20.20;67.20
6377;DHT22;3221;48.858;10.128;2023-07-08T04:39:10;20.20;66.70
6377;DHT22;3221;48.858;10.128;2023-07-08T04:41:38;20.20;66.20
6377;DHT22;3221;48.858;10.128;2023-07-08T04:44:11;20.20;66.10
6377;DHT22;3221;48.858;10.128;2023-07-08T04:46:50;20.20;66.10
6377;DHT22;3221;48.858;10.128;2023-07-08T04:49:20;20.30;66.30
6377;DHT22;3221;48.858;10.128;2023-07-08T04:51:47;20.30;66.10
6377;DHT22;3221;48.858;10.128;2023-07-08T04:54:14;20.30;66.00
6377;DHT22;3221;48.858;10.128;2023-07-08T04:56:46;20.30;66.10
6377;DHT22;3221;48.858;10.128;2023-07-08T04:59:18;20.30;66.60
6377;DHT22;3221;48.858;10.128;2023-07-08T05:01:46;20.30;66.50
6377;DHT22;3221;48.858;10.128;2023-07-08T05:04:18;20.30;67.00
6377;DHT22;3221;48.858;10.128;2023-07-08T05:06:46;20.30;67.10
6377;DHT22;3221;48.858;10.128;2023-07-08T05:09:13;20.30;67.20
6377;DHT22;3221;48.858;10.128;2023-07-08T05:11:43;20.40;67.90
6377;DHT22;3221;48.858;10.128;2023-07-08T05:14:12;20.40;67.70
6377;DHT22;3221;48.858;10.128;2023-07-08T05:16:39;20.40;68.10
6377;DHT22;3221;48.858;10.128;2023-07-08T05:19:07;20.30;67.90
6377;DHT22;3221;48.858;10.128;2023-07-08T05:21:34;20.40;68.50
6377;DHT22;3221;48.858;10.128;2023-07-08T05:24:02;20.30;68.60
6377;DHT22;3221;48.858;10.128;2023-07-08T05:26:30;20.50;69.00
6377;DHT22;3221;48.858;10.128;2023-07-08T05:28:57;20.60;69.70
6377;DHT22;3221;48.858;10.128;2023-07-08T05:31:24;20.50;69.30
6377;DHT22;3221;48.858;10.128;2023-07-08T05:34:07;20.40;70.20
6377;DHT22;3221;48.858;10.128;2023-07-08T05:36:34;20.40;70.70
6377;DHT22;3221;48.858;10.128;2023-07-08T05:39:01;20.30;70.00
6377;DHT22;3221;48.858;10.128;2023-07-08T05:41:28;20.30;70.90
6377;DHT22;3221;48.858;10.128;2023-07-08T05:43:55;20.30;71.60
6377;DHT22;3221;48.858;10.128;2023-07-08T05:46:22;20.30;71.60
6377;DHT22;3221;48.858;10.128;2023-07-08T05:48:48;20.30;71.00
6377;DHT22;3221;48.858;10.128;2023-07-08T05:51:17;20.30;71.00
6377;DHT22;3221;48.858;10.128;2023-07-08T05:53:44;20.70;71.80
6377;DHT22;3221;48.858;10.128;2023-07-08T05:56:11;20.70;72.70
6377;DHT22;3221;48.858;10.128;2023-07-08T05:58:38;20.90;72.20
6377;DHT22;3221;48.858;10.128;2023-07-08T06:01:05;21.00;71.60
6377;DHT22;3221;48.858;10.128;2023-07-08T06:03:32;20.80;71.70
6377;DHT22;3221;48.858;10.128;2023-07-08T06:05:59;20.80;72.20
6377;DHT22;3221;48.858;10.128;2023-07-08T06:08:28;20.80;72.70
6377;DHT22;3221;48.858;10.128;2023-07-08T06:10:55;20.80;72.90
6377;DHT22;3221;48.858;10.128;2023-07-08T06:13:21;20.80;74.00
6377;DHT22;3221;48.858;10.128;2023-07-08T06:15:48;20.70;73.00
6377;DHT22;3221;48.858;10.128;2023-07-08T06:18:15;20.80;73.80
6377;DHT22;3221;48.858;10.128;2023-07-08T06:20:54;21.20;75.20
6377;DHT22;3221;48.858;10.128;2023-07-08T06:23:21;21.30;74.90
6377;DHT22;3221;48.858;10.128;2023-07-08T06:25:48;21.20;77.00
6377;DHT22;3221;48.858;10.128;2023-07-08T06:28:15;21.20;74.50
6377;DHT22;3221;48.858;10.128;2023-07-08T06:30:42;21.10;74.40
6377;DHT22;3221;48.858;10.128;2023-07-08T06:33:09;21.20;75.10
6377;DHT22;3221;48.858;10.128;2023-07-08T06:35:39;21.20;75.80
6377;DHT22;3221;48.858;10.128;2023-07-08T06:38:06;21.20;75.30
6377;DHT22;3221;48.858;10.128;2023-07-08T06:40:34;21.30;75.60
6377;DHT22;3221;48.858;10.128;2023-07-08T06:43:04;21.30;75.00
6377;DHT22;3221;48.858;10.128;2023-07-08T06:45:37;21.30;75.50
6377;DHT22;3221;48.858;10.128;2023-07-08T06:48:04;21.40;76.00
6377;DHT22;3221;48.858;10.128;2023-07-08T06:50:32;21.50;76.10
6377;DHT22;3221;48.858;10.128;2023-07-08T06:52:59;21.70;76.70
6377;DHT22;3221;48.858;10.128;2023-07-08T06:55:25;21.80;77.30
6377;DHT22;3221;48.858;10.128;2023-07-08T06:57:52;21.90;77.70
6377;DHT22;3221;48.858;10.128;2023-07-08T07:00:19;22.10;78.00
6377;DHT22;3221;48.858;10.128;2023-07-08T07:02:46;21.90;77.70
6377;DHT22;3221;48.858;10.128;2023-07-08T07:05:13;22.00;78.00
6377;DHT22;3221;48.858;10.128;2023-07-08T07:07:40;22.10;77.80
6377;DHT22;3221;48.858;10.128;2023-07-08T07:10:07;22.20;77.20
6377;DHT22;3221;48.858;10.128;2023-07-08T07:12:35;22.30;76.70
6377;DHT22;3221;48.858;10.128;2023-07-08T07:15:02;22.30;77.70
6377;DHT22;3221;48.858;10.128;2023-07-08T07:17:30;22.30;78.20
6377;DHT22;3221;48.858;10.128;2023-07-08T07:19:57;22.30;77.70
6377;DHT22;3221;48.858;10.128;2023-07-08T07:22:24;22.30;77.00
6377;DHT22;3221;48.858;10.128;2023-07-08T07:24:51;22.30;76.80
6377;DHT22;3221;48.858;10.128;2023-07-08T07:27:18;22.40;77.40
6377;DHT22;3221;48.858;10.128;2023-07-08T07:29:47;22.30;77.60
6377;DHT22;3221;48.858;10.128;2023-07-08T07:32:15;22.40;76.40
6377;DHT22;3221;48.858;10.128;2023-07-08T07:34:42;22.50;75.70
6377;DHT22;3221;48.858;10.128;2023-07-08T07:37:12;22.50;75.80
6377;DHT22;3221;48.858;10.128;2023-07-08T07:39:40;22.40;76.20
6377;DHT22;3221;48.858;10.128;2023-07-08T07:42:08;22.40;76.80
6377;DHT22;3221;48.858;10.128;2023-07-08T07:44:35;22.40;77.10
6377;DHT22;3221;48.858;10.128;2023-07-08T07:47:03;22.50;76.80
6377;DHT22;3221;48.858;10.128;2023-07-08T07:49:30;22.50;75.80
6377;DHT22;3221;48.858;10.128;2023-07-08T07:51:58;22.50;76.60
6377;DHT22;3221;48.858;10.128;2023-07-08T07:54:25;22.40;76.40
6377;DHT22;3221;48.858;10.128;2023-07-08T07:56:52;22.50;76.50
6377;DHT22;3221;48.858;10.128;2023-07-08T07:59:20;22.60;76.10
6377;DHT22;3221;48.858;10.128;2023-07-08T08:01:46;22.60;75.90
6377;DHT22;3221;48.858;10.128;2023-07-08T08:04:13;22.60;75.90
6377;DHT22;3221;48.858;10.128;2023-07-08T08:06:40;22.60;75.80
6377;DHT22;3221;48.858;10.128;2023-07-08T08:09:07;22.70;76.50
6377;DHT22;3221;48.858;10.128;2023-07-08T08:11:34;22.70;76.40
6377;DHT22;3221;48.858;10.128;2023-07-08T08:14:01;22.60;76.80
6377;DHT22;3221;48.858;10.128;2023-07-08T08:16:30;22.50;76.60
6377;DHT22;3221;48.858;10.128;2023-07-08T08:18:57;22.50;77.20
6377;DHT22;3221;48.858;10.128;2023-07-08T08:21:24;22.50;77.20
6377;DHT22;3221;48.858;10.128;2023-07-08T08:23:51;22.40;77.30
6377;DHT22;3221;48.858;10.128;2023-07-08T08:26:18;22.50;77.20
6377;DHT22;3221;48.858;10.128;2023-07-08T08:28:45;22.50;77.30
6377;DHT22;3221;48.858;10.128;2023-07-08T08:31:12;22.60;77.30
6377;DHT22;3221;48.858;10.128;2023-07-08T08:33:39;22.50;77.20
6377;DHT22;3221;48.858;10.128;2023-07-08T08:36:06;22.50;77.30
6377;DHT22;3221;48.858;10.128;2023-07-08T08:38:32;22.50;77.10
6377;DHT22;3221;48.858;10.128;2023-07-08T08:41:12;22.70;77.00
6377;DHT22;3221;48.858;10.128;2023-07-08T08:43:40;22.70;77.30
6377;DHT22;3221;48.858;10.128;2023-07-08T08:49:04;22.60;77.10
6377;DHT22;3221;48.858;10.128;2023-07-08T08:51:32;22.70;76.90
6377;DHT22;3221;48.858;10.128;2023-07-08T08:54:00;22.70;76.60
6377;DHT22;3221;48.858;10.128;2023-07-08T08:57:06;22.60;77.30
6377;DHT22;3221;48.858;10.128;2023-07-08T08:59:51;22.70;77.20
6377;DHT22;3221;48.858;10.128;2023-07-08T09:02:43;22.70;77.40
6377;DHT22;3221;48.858;10.128;2023-07-08T09:05:13;22.70;77.10
6377;DHT22;3221;48.858;10.128;2023-07-08T09:10:19;22.60;76.70
6377;DHT22;3221;48.858;10.128;2023-07-08T09:12:50;22.60;77.20
6377;DHT22;3221;48.858;10.128;2023-07-08T09:15:19;22.80;77.60
6377;DHT22;3221;48.858;10.128;2023-07-08T09:17:47;22.70;77.20
6377;DHT22;3221;48.858;10.128;2023-07-08T09:20:19;22.90;77.50
6377;DHT22;3221;48.858;10.128;2023-07-08T09:23:15;23.00;77.10
6377;DHT22;3221;48.858;10.128;2023-07-08T09:25:58;23.10;77.00
6377;DHT22;3221;48.858;10.128;2023-07-08T09:28:40;23.20;77.30
6377;DHT22;3221;48.858;10.128;2023-07-08T09:31:16;23.30;77.90
6377;DHT22;3221;48.858;10.128;2023-07-08T09:33:47;23.40;77.20
6377;DHT22;3221;48.858;10.128;2023-07-08T09:36:22;23.50;76.70
6377;DHT22;3221;48.858;10.128;2023-07-08T09:38:50;23.40;78.00
6377;DHT22;3221;48.858;10.128;2023-07-08T09:41:32;23.60;77.50
6377;DHT22;3221;48.858;10.128;2023-07-08T09:44:05;23.60;77.30
6377;DHT22;3221;48.858;10.128;2023-07-08T09:46:36;23.60;77.60
6377;DHT22;3221;48.858;10.128;2023-07-08T09:51:45;23.70;77.00
6377;DHT22;3221;48.858;10.128;2023-07-08T09:54:12;23.80;76.30
6377;DHT22;3221;48.858;10.128;2023-07-08T09:56:42;23.90;76.90
6377;DHT22;3221;48.858;10.128;2023-07-08T09:59:14;23.80;76.60
6377;DHT22;3221;48.858;10.128;2023-07-08T10:01:42;23.70;76.30
6377;DHT22;3221;48.858;10.128;2023-07-08T10:04:11;23.90;75.90
6377;DHT22;3221;48.858;10.128;2023-07-08T10:06:38;23.90;75.70
6377;DHT22;3221;48.858;10.128;2023-07-08T10:09:12;24.00;75.10
6377;DHT22;3221;48.858;10.128;2023-07-08T10:11:52;24.00;75.40
6377;DHT22;3221;48.858;10.128;2023-07-08T10:14:34;24.10;74.70
6377;DHT22;3221;48.858;10.128;2023-07-08T10:17:02;24.20;75.50
6377;DHT22;3221;48.858;10.128;2023-07-08T10:19:29;24.30;75.10
6377;DHT22;3221;48.858;10.128;2023-07-08T10:28:09;24.40;75.50
6377;DHT22;3221;48.858;10.128;2023-07-08T10:31:05;24.40;74.80
6377;DHT22;3221;48.858;10.128;2023-07-08T10:48:03;24.40;74.60
6377;DHT22;3221;48.858;10.128;2023-07-08T11:10:02;24.50;74.40
6377;DHT22;3221;48.858;10.128;2023-07-08T11:17:49;24.90;74.10
6377;DHT22;3221;48.858;10.128;2023-07-08T11:20:36;24.90;73.90
6377;DHT22;3221;48.858;10.128;2023-07-08T11:25:41;24.90;73.70
6377;DHT22;3221;48.858;10.128;2023-07-08T11:28:13;24.90;74.10
6377;DHT22;3221;48.858;10.128;2023-07-08T11:30:42;24.80;74.90
6377;DHT22;3221;48.858;10.128;2023-07-08T11:33:12;24.70;75.00
6377;DHT22;3221;48.858;10.128;2023-07-08T11:35:47;24.70;74.30
6377;DHT22;3221;48.858;10.128;2023-07-08T11:38:20;24.70;74.90
6377;DHT22;3221;48.858;10.128;2023-07-08T11:41:14;24.90;75.40
6377;DHT22;3221;48.858;10.128;2023-07-08T11:43:48;25.00;75.00
6377;DHT22;3221;48.858;10.128;2023-07-08T11:46:28;25.10;75.40
6377;DHT22;3221;48.858;10.128;2023-07-08T11:49:02;25.10;75.50
6377;DHT22;3221;48.858;10.128;2023-07-08T11:51:34;25.10;74.20
6377;DHT22;3221;48.858;10.128;2023-07-08T11:59:25;25.30;74.00
6377;DHT22;3221;48.858;10.128;2023-07-08T12:01:53;25.30;74.20
6377;DHT22;3221;48.858;10.128;2023-07-08T12:04:27;25.40;74.30
6377;DHT22;3221;48.858;10.128;2023-07-08T12:12:36;25.60;73.80
6377;DHT22;3221;48.858;10.128;2023-07-08T12:15:17;25.70;73.00
6377;DHT22;3221;48.858;10.128;2023-07-08T12:17:48;25.90;73.50
6377;DHT22;3221;48.858;10.128;2023-07-08T12:20:24;25.90;73.60
6377;DHT22;3221;48.858;10.128;2023-07-08T12:22:53;25.80;73.50
6377;DHT22;3221;48.858;10.128;2023-07-08T12:25:27;25.90;73.10
6377;DHT22;3221;48.858;10.128;2023-07-08T12:27:54;26.00;73.50
6377;DHT22;3221;48.858;10.128;2023-07-08T12:30:21;26.10;72.20
6377;DHT22;3221;48.858;10.128;2023-07-08T12:32:48;26.20;71.80
6377;DHT22;3221;48.858;10.128;2023-07-08T12:35:28;26.50;72.10
6377;DHT22;3221;48.858;10.128;2023-07-08T12:38:09;26.40;72.80
6377;DHT22;3221;48.858;10.128;2023-07-08T12:40:38;26.30;71.50
6377;DHT22;3221;48.858;10.128;2023-07-08T12:43:09;26.20;71.90
6377;DHT22;3221;48.858;10.128;2023-07-08T12:45:37;26.30;72.00
6377;DHT22;3221;48.858;10.128;2023-07-08T12:48:04;26.50;72.70
6377;DHT22;3221;48.858;10.128;2023-07-08T12:50:31;26.70;71.40
6377;DHT22;3221;48.858;10.128;2023-07-08T12:52:58;26.90;71.50
6377;DHT22;3221;48.858;10.128;2023-07-08T12:55:31;26.80;71.70
6377;DHT22;3221;48.858;10.128;2023-07-08T12:57:59;26.80;71.10
6377;DHT22;3221;48.858;10.128;2023-07-08T13:00:30;26.80;70.70
6377;DHT22;3221;48.858;10.128;2023-07-08T13:03:18;26.90;70.00
6377;DHT22;3221;48.858;10.128;2023-07-08T13:05:49;27.00;69.70
6377;DHT22;3221;48.858;10.128;2023-07-08T13:08:20;27.10;69.70
6377;DHT22;3221;48.858;10.128;2023-07-08T13:10:47;27.30;69.70
6377;DHT22;3221;48.858;10.128;2023-07-08T13:13:20;27.30;69.00
6377;DHT22;3221;48.858;10.128;2023-07-08T13:15:48;27.40;70.20
6377;DHT22;3221;48.858;10.128;2023-07-08T13:18:18;27.20;70.20
6377;DHT22;3221;48.858;10.128;2023-07-08T13:20:53;27.20;70.10
6377;DHT22;3221;48.858;10.128;2023-07-08T13:23:22;27.20;68.00
6377;DHT22;3221;48.858;10.128;2023-07-08T13:25:50;27.30;69.40
6377;DHT22;3221;48.858;10.128;2023-07-08T13:28:23;27.30;69.70
6377;DHT22;3221;48.858;10.128;2023-07-08T13:33:21;27.30;69.00
6377;DHT22;3221;48.858;10.128;2023-07-08T13:35:50;27.30;69.50
6377;DHT22;3221;48.858;10.128;2023-07-08T13:38:23;27.30;69.10
6377;DHT22;3221;48.858;10.128;2023-07-08T13:41:02;27.40;68.80
6377;DHT22;3221;48.858;10.128;2023-07-08T13:43:32;27.40;69.20
6377;DHT22;3221;48.858;10.128;2023-07-08T13:46:00;27.60;68.50
6377;DHT22;3221;48.858;10.128;2023-07-08T13:51:01;27.50;68.20
6377;DHT22;3221;48.858;10.128;2023-07-08T13:53:51;27.60;64.90
6377;DHT22;3221;48.858;10.128;2023-07-08T13:56:32;27.80;66.30
6377;DHT22;3221;48.858;10.128;2023-07-08T13:59:07;27.90;64.70
6377;DHT22;3221;48.858;10.128;2023-07-08T14:01:38;28.20;64.80
6377;DHT22;3221;48.858;10.128;2023-07-08T14:04:06;28.20;64.50
6377;DHT22;3221;48.858;10.128;2023-07-08T14:06:36;28.30;64.30
6377;DHT22;3221;48.858;10.128;2023-07-08T14:09:16;28.20;64.80
6377;DHT22;3221;48.858;10.128;2023-07-08T14:11:44;28.30;65.10
6377;DHT22;3221;48.858;10.128;2023-07-08T14:14:12;28.50;64.30
6377;DHT22;3221;48.858;10.128;2023-07-08T14:16:46;28.60;63.60
6377;DHT22;3221;48.858;10.128;2023-07-08T14:19:21;28.80;64.30
6377;DHT22;3221;48.858;10.128;2023-07-08T14:21:53;28.80;63.70
6377;DHT22;3221;48.858;10.128;2023-07-08T14:24:20;28.70;60.50
6377;DHT22;3221;48.858;10.128;2023-07-08T14:26:47;28.70;61.30
6377;DHT22;3221;48.858;10.128;2023-07-08T14:29:14;28.70;62.40
6377;DHT22;3221;48.858;10.128;2023-07-08T14:31:41;28.80;61.10
6377;DHT22;3221;48.858;10.128;2023-07-08T14:34:16;28.80;63.20
6377;DHT22;3221;48.858;10.128;2023-07-08T14:36:44;28.80;61.80
6377;DHT22;3221;48.858;10.128;2023-07-08T14:39:13;28.80;62.20
6377;DHT22;3221;48.858;10.128;2023-07-08T14:41:42;28.80;62.10
6377;DHT22;3221;48.858;10.128;2023-07-08T14:44:31;28.90;61.60
6377;DHT22;3221;48.858;10.128;2023-07-08T14:46:58;28.80;60.70
6377;DHT22;3221;48.858;10.128;2023-07-08T14:49:26;28.70;63.20
6377;DHT22;3221;48.858;10.128;2023-07-08T14:51:53;28.70;62.90
6377;DHT22;3221;48.858;10.128;2023-07-08T14:54:21;28.90;60.80
6377;DHT22;3221;48.858;10.128;2023-07-08T14:56:49;28.90;62.30
6377;DHT22;3221;48.858;10.128;2023-07-08T14:59:23;28.90;61.40
6377;DHT22;3221;48.858;10.128;2023-07-08T15:01:52;28.90;60.00
6377;DHT22;3221;48.858;10.128;2023-07-08T15:04:19;28.80;61.30
6377;DHT22;3221;48.858;10.128;2023-07-08T15:06:46;28.80;61.50
6377;DHT22;3221;48.858;10.128;2023-07-08T15:09:13;28.90;61.90
6377;DHT22;3221;48.858;10.128;2023-07-08T15:11:41;28.80;63.20
6377;DHT22;3221;48.858;10.128;2023-07-08T15:14:20;28.90;61.50
6377;DHT22;3221;48.858;10.128;2023-07-08T15:16:49;28.80;63.40
6377;DHT22;3221;48.858;10.128;2023-07-08T15:19:18;28.90;61.20
6377;DHT22;3221;48.858;10.128;2023-07-08T15:21:45;29.20;60.40
6377;DHT22;3221;48.858;10.128;2023-07-08T15:24:13;29.30;61.20
6377;DHT22;3221;48.858;10.128;2023-07-08T15:26:46;29.20;61.70
6377;DHT22;3221;48.858;10.128;2023-07-08T15:29:23;29.10;59.80
6377;DHT22;3221;48.858;10.128;2023-07-08T15:31:50;29.10;60.50
6377;DHT22;3221;48.858;10.128;2023-07-08T15:34:20;29.00;62.00
6377;DHT22;3221;48.858;10.128;2023-07-08T15:36:47;28.90;61.60
6377;DHT22;3221;48.858;10.128;2023-07-08T15:39:15;29.20;61.20
6377;DHT22;3221;48.858;10.128;2023-07-08T15:41:43;29.30;61.30
6377;DHT22;3221;48.858;10.128;2023-07-08T15:44:11;29.30;61.40
6377;DHT22;3221;48.858;10.128;2023-07-08T15:46:44;29.20;60.30
6377;DHT22;3221;48.858;10.128;2023-07-08T15:49:20;29.40;61.50
6377;DHT22;3221;48.858;10.128;2023-07-08T15:51:49;29.30;61.10
6377;DHT22;3221;48.858;10.128;2023-07-08T15:54:18;29.30;59.40
6377;DHT22;3221;48.858;10.128;2023-07-08T15:56:50;29.30;59.60
6377;DHT22;3221;48.858;10.128;2023-07-08T15:59:22;29.20;59.60
6377;DHT22;3221;48.858;10.128;2023-07-08T16:01:50;28.90;59.90
6377;DHT22;3221;48.858;10.128;2023-07-08T16:04:32;28.80;60.80
6377;DHT22;3221;48.858;10.128;2023-07-08T16:06:59;28.80;61.00
6377;DHT22;3221;48.858;10.128;2023-07-08T16:09:26;28.70;60.50
6377;DHT22;3221;48.858;10.128;2023-07-08T16:11:53;28.70;60.40
6377;DHT22;3221;48.858;10.128;2023-07-08T16:14:20;28.60;61.10
6377;DHT22;3221;48.858;10.128;2023-07-08T16:16:51;28.50;60.50
6377;DHT22;3221;48.858;10.128;2023-07-08T16:19:18;28.40;61.10
6377;DHT22;3221;48.858;10.128;2023-07-08T16:21:47;28.30;61.40
6377;DHT22;3221;48.858;10.128;2023-07-08T16:24:13;28.40;62.00
6377;DHT22;3221;48.858;10.128;2023-07-08T16:26:40;28.40;61.70
6377;DHT22;3221;48.858;10.128;2023-07-08T16:29:14;28.40;62.30
6377;DHT22;3221;48.858;10.128;2023-07-08T16:31:41;28.30;61.80
6377;DHT22;3221;48.858;10.128;2023-07-08T16:34:10;28.30;60.90
6377;DHT22;3221;48.858;10.128;2023-07-08T16:36:37;28.30;61.60
6377;DHT22;3221;48.858;10.128;2023-07-08T16:39:05;28.30;60.80
6377;DHT22;3221;48.858;10.128;2023-07-08T16:41:33;28.20;62.10
6377;DHT22;3221;48.858;10.128;2023-07-08T16:44:22;28.20;62.00
6377;DHT22;3221;48.858;10.128;2023-07-08T16:46:49;28.00;62.70
6377;DHT22;3221;48.858;10.128;2023-07-08T16:49:16;28.00;62.30
6377;DHT22;3221;48.858;10.128;2023-07-08T16:51:43;28.00;62.60
6377;DHT22;3221;48.858;10.128;2023-07-08T16:54:17;27.90;63.10
6377;DHT22;3221;48.858;10.128;2023-07-08T16:56:45;27.80;63.50
6377;DHT22;3221;48.858;10.128;2023-07-08T16:59:14;27.90;63.20
6377;DHT22;3221;48.858;10.128;2023-07-08T17:01:41;27.90;63.20
6377;DHT22;3221;48.858;10.128;2023-07-08T17:04:11;27.90;61.80
6377;DHT22;3221;48.858;10.128;2023-07-08T17:06:39;27.80;62.40
6377;DHT22;3221;48.858;10.128;2023-07-08T17:09:10;27.70;62.00
6377;DHT22;3221;48.858;10.128;2023-07-08T17:11:38;27.70;62.70
6377;DHT22;3221;48.858;10.128;2023-07-08T17:14:04;27.60;62.50
6377;DHT22;3221;48.858;10.128;2023-07-08T17:16:35;27.60;62.70
6377;DHT22;3221;48.858;10.128;2023-07-08T17:19:02;27.50;62.70
6377;DHT22;3221;48.858;10.128;2023-07-08T17:21:29;27.50;62.80